IBE0279 LEGR-LEMD
Flight info
| Callsign | IBE0279 |
|---|---|
| Flight time | 0h 38m |
| Altitude | 30000 |
| Route | VIBAS N865 MORAL |
| Aircraft | A320/M-SDE3FGHIRWY/LB1 |
Departure
| Time | 2026-04-30 17:41 |
|---|---|
| Airport | F.G.L. Airport Granada-Jaén Airport (LEGR) |
Arrival
| Time | 2026-04-30 18:19 |
|---|---|
| Airport | Adolfo Suárez Madrid–Barajas Airport (LEMD) |
| Time | Latitude | Longitude | Altitude | Speed | Heading |
|---|---|---|---|---|---|
| 2026-04-30 17:39 | 37.18851 | -3.81244 | 3282 ft | 166 kts | 267° |
| 2026-04-30 17:41 | 37.18356 | -3.96750 | 8369 ft | 255 kts | 266° |
| 2026-04-30 17:42 | 37.18528 | -4.01250 | 10028 ft | 268 kts | 286° |
| 2026-04-30 17:42 | 37.22720 | -4.05905 | 12163 ft | 296 kts | 348° |
| 2026-04-30 17:43 | 37.26683 | -4.04832 | 13690 ft | 302 kts | 37° |
| 2026-04-30 17:44 | 37.28899 | -3.97632 | 14803 ft | 331 kts | 104° |
| 2026-04-30 17:44 | 37.27559 | -3.88421 | 15404 ft | 390 kts | 99° |
| 2026-04-30 17:46 | 37.33792 | -3.72655 | 18064 ft | 425 kts | 55° |
| 2026-04-30 17:47 | 37.43077 | -3.63641 | 19986 ft | 438 kts | 14° |
| 2026-04-30 17:48 | 37.55365 | -3.62984 | 21816 ft | 449 kts | 359° |
| 2026-04-30 17:48 | 37.64816 | -3.62891 | 23098 ft | 457 kts | 359° |
| 2026-04-30 17:49 | 37.77681 | -3.62786 | 24526 ft | 469 kts | 358° |
| 2026-04-30 17:50 | 37.90882 | -3.62675 | 25829 ft | 479 kts | 358° |
| 2026-04-30 17:51 | 38.00943 | -3.62586 | 26722 ft | 485 kts | 358° |
| 2026-04-30 17:52 | 38.11103 | -3.62511 | 27611 ft | 491 kts | 358° |
| 2026-04-30 17:53 | 38.28131 | -3.61344 | 29678 ft | 490 kts | 3° |
| 2026-04-30 17:54 | 38.41732 | -3.59868 | 30038 ft | 491 kts | 2° |
| 2026-04-30 17:56 | 38.68977 | -3.57275 | 30034 ft | 490 kts | 2° |
| 2026-04-30 17:58 | 38.89376 | -3.55261 | 30033 ft | 489 kts | 2° |
| 2026-04-30 17:59 | 39.02627 | -3.56899 | 30025 ft | 479 kts | 335° |
| 2026-04-30 18:00 | 39.13993 | -3.65536 | 30028 ft | 474 kts | 324° |
| 2026-04-30 18:00 | 39.22380 | -3.72321 | 29503 ft | 474 kts | 324° |
| 2026-04-30 18:01 | 39.28016 | -3.76921 | 26909 ft | 486 kts | 325° |
| 2026-04-30 18:02 | 39.36693 | -3.84008 | 23229 ft | 496 kts | 326° |
| 2026-04-30 18:02 | 39.45204 | -3.90948 | 21184 ft | 470 kts | 326° |
| 2026-04-30 18:03 | 39.52981 | -3.97301 | 20920 ft | 413 kts | 327° |
| 2026-04-30 18:04 | 39.60967 | -3.98907 | 20077 ft | 390 kts | 15° |
| 2026-04-30 18:05 | 39.69777 | -3.91522 | 18987 ft | 353 kts | 36° |
| 2026-04-30 18:06 | 39.77435 | -3.84213 | 16611 ft | 336 kts | 36° |
| 2026-04-30 18:07 | 39.84838 | -3.77113 | 14160 ft | 328 kts | 35° |
| 2026-04-30 18:08 | 39.90301 | -3.71864 | 12253 ft | 322 kts | 35° |
| 2026-04-30 18:09 | 39.97391 | -3.65022 | 9950 ft | 308 kts | 35° |
| 2026-04-30 18:10 | 40.03973 | -3.58658 | 8612 ft | 286 kts | 36° |
| 2026-04-30 18:11 | 40.10192 | -3.52632 | 6836 ft | 274 kts | 37° |
| 2026-04-30 18:11 | 40.14645 | -3.48302 | 6168 ft | 260 kts | 37° |
| 2026-04-30 18:12 | 40.18854 | -3.43802 | 5598 ft | 263 kts | 42° |
| 2026-04-30 18:13 | 40.21608 | -3.40865 | 5019 ft | 252 kts | 28° |
| 2026-04-30 18:13 | 40.25852 | -3.38529 | 4044 ft | 249 kts | 2° |
| 2026-04-30 18:14 | 40.29597 | -3.39037 | 4001 ft | 215 kts | 345° |
| 2026-04-30 18:15 | 40.32847 | -3.41767 | 3989 ft | 163 kts | 320° |
| 2026-04-30 18:15 | 40.35565 | -3.44513 | 4014 ft | 169 kts | 320° |
| 2026-04-30 18:16 | 40.37431 | -3.46399 | 4001 ft | 170 kts | 321° |
| 2026-04-30 18:16 | 40.39299 | -3.48288 | 3690 ft | 168 kts | 321° |
| 2026-04-30 18:17 | 40.40226 | -3.49224 | 3516 ft | 168 kts | 321° |
| 2026-04-30 18:17 | 40.41144 | -3.50161 | 3281 ft | 166 kts | 321° |
| 2026-04-30 18:17 | 40.42962 | -3.52007 | 2782 ft | 166 kts | 321° |
| 2026-04-30 18:18 | 40.43867 | -3.52923 | 2556 ft | 158 kts | 322° |
| 2026-04-30 18:18 | 40.44703 | -3.53758 | 2387 ft | 146 kts | 323° |
| 2026-04-30 18:18 | 40.45229 | -3.54303 | 2280 ft | 144 kts | 322° |
| 2026-04-30 18:18 | 40.46013 | -3.55092 | 2102 ft | 141 kts | 323° |
| 2026-04-30 18:19 | 40.46784 | -3.55866 | 1990 ft | 135 kts | 323° |
| 2026-04-30 18:19 | 40.47438 | -3.56534 | 1980 ft | 98 kts | 321° |
| 2026-04-30 18:19 | 40.47845 | -3.56945 | 1982 ft | 56 kts | 323° |
| 2026-04-30 18:19 | 40.48127 | -3.57235 | 1981 ft | 45 kts | 319° |
| 2026-04-30 18:20 | 40.48168 | -3.57417 | 1980 ft | 13 kts | 289° |
| 2026-04-30 18:20 | 40.48156 | -3.57486 | 1983 ft | 11 kts | 223° |
| 2026-04-30 18:20 | 40.48143 | -3.57494 | 1983 ft | 0 kts | 197° |
| 2026-04-30 18:21 | 40.48121 | -3.57489 | 1983 ft | 8 kts | 141° |
| 2026-04-30 18:21 | 40.48083 | -3.57443 | 1980 ft | 7 kts | 143° |
| 2026-04-30 18:21 | 40.48044 | -3.57430 | 1980 ft | 5 kts | 192° |
| 2026-04-30 18:22 | 40.48016 | -3.57475 | 1980 ft | 13 kts | 259° |
| 2026-04-30 18:22 | 40.48165 | -3.57664 | 1984 ft | 17 kts | 322° |
| 2026-04-30 18:22 | 40.48265 | -3.57768 | 1980 ft | 19 kts | 321° |
| 2026-04-30 18:23 | 40.48376 | -3.57877 | 1980 ft | 21 kts | 327° |
| 2026-04-30 18:23 | 40.48500 | -3.57983 | 1983 ft | 21 kts | 320° |
| 2026-04-30 18:23 | 40.48508 | -3.58141 | 1980 ft | 18 kts | 273° |
| 2026-04-30 18:23 | 40.48515 | -3.58315 | 1980 ft | 20 kts | 271° |
| 2026-04-30 18:24 | 40.48509 | -3.58673 | 1980 ft | 18 kts | 268° |
| 2026-04-30 18:24 | 40.48539 | -3.58814 | 1980 ft | 15 kts | 327° |
| 2026-04-30 18:24 | 40.48643 | -3.58823 | 1982 ft | 16 kts | 359° |
| 2026-04-30 18:25 | 40.48759 | -3.58824 | 1980 ft | 17 kts | 2° |
| 2026-04-30 18:25 | 40.49015 | -3.58827 | 1982 ft | 20 kts | 1° |
| 2026-04-30 18:25 | 40.49136 | -3.58826 | 1980 ft | 17 kts | 0° |
| 2026-04-30 18:26 | 40.49230 | -3.58891 | 1980 ft | 4 kts | 268° |
| 2026-04-30 18:26 | 40.49230 | -3.58922 | 1980 ft | 3 kts | 268° |
| 2026-04-30 18:26 | 40.49230 | -3.58944 | 1980 ft | 2 kts | 270° |
| 2026-04-30 18:27 | 40.49230 | -3.58976 | 1980 ft | 0 kts | 270° |
| 2026-04-30 18:27 | 40.49230 | -3.58977 | 1980 ft | 0 kts | 270° |